createdAt,value
2018-11-21T00:00:18.455Z,11.40
2018-11-21T00:02:47.536Z,10.30
2018-11-21T00:05:16.487Z,11.13
2018-11-21T00:07:46.318Z,11.60
2018-11-21T00:10:15.062Z,11.47
2018-11-21T00:12:49.179Z,10.77
2018-11-21T00:15:18.037Z,10.70
2018-11-21T00:17:46.814Z,11.10
2018-11-21T00:20:15.531Z,11.00
2018-11-21T00:22:44.315Z,11.70
2018-11-21T00:25:13.489Z,10.43
2018-11-21T00:27:42.226Z,11.30
2018-11-21T00:30:13.216Z,10.43
2018-11-21T00:32:43.155Z,11.33
2018-11-21T00:35:11.973Z,11.23
2018-11-21T00:37:40.728Z,10.40
2018-11-21T00:40:11.142Z,11.40
2018-11-21T00:42:46.471Z,10.50
2018-11-21T00:45:09.798Z,10.70
2018-11-21T00:47:38.730Z,9.60
2018-11-21T00:50:07.812Z,10.23
2018-11-21T00:52:36.956Z,10.83
2018-11-21T00:55:07.146Z,11.20
2018-11-21T00:57:35.942Z,10.57
2018-11-21T01:00:06.799Z,10.67
2018-11-21T01:02:35.589Z,11.50
2018-11-21T01:05:04.566Z,10.37
2018-11-21T01:07:33.384Z,10.47
2018-11-21T01:10:02.104Z,10.90
2018-11-21T01:12:30.816Z,10.43
2018-11-21T01:14:59.557Z,11.23
2018-11-21T01:17:28.334Z,10.43
2018-11-21T01:19:57.036Z,10.43
2018-11-21T01:22:25.790Z,10.90
2018-11-21T01:24:54.578Z,11.07
2018-11-21T01:27:23.415Z,10.47
2018-11-21T01:29:52.100Z,11.57
2018-11-21T01:32:20.893Z,11.23
2018-11-21T01:34:49.826Z,11.67
2018-11-21T01:37:18.538Z,10.57
2018-11-21T01:39:47.440Z,10.13
2018-11-21T01:42:16.321Z,11.23
2018-11-21T01:44:45.045Z,10.57
2018-11-21T01:47:13.806Z,10.43
2018-11-21T01:49:42.588Z,10.60
2018-11-21T01:52:11.405Z,10.27
2018-11-21T01:54:40.155Z,10.53
2018-11-21T01:57:09.009Z,10.80
2018-11-21T01:59:38.223Z,11.00
2018-11-21T02:02:06.949Z,10.33
2018-11-21T02:04:35.941Z,10.73
2018-11-21T02:07:05.448Z,10.53
2018-11-21T02:09:34.230Z,10.90
2018-11-21T02:12:02.995Z,10.57
2018-11-21T02:14:31.765Z,10.53
2018-11-21T02:17:00.604Z,10.40
2018-11-21T02:19:29.285Z,11.33
2018-11-21T02:21:58.050Z,10.40
2018-11-21T02:24:26.873Z,10.27
2018-11-21T02:26:55.649Z,11.03
2018-11-21T02:29:24.380Z,11.03
2018-11-21T02:31:53.160Z,10.00
2018-11-21T02:34:22.049Z,10.90
2018-11-21T02:36:50.899Z,11.00
2018-11-21T02:39:19.762Z,10.50
2018-11-21T02:41:48.634Z,10.83
2018-11-21T02:44:17.473Z,10.50
2018-11-21T02:46:46.244Z,10.80
2018-11-21T02:49:15.019Z,11.03
2018-11-21T02:51:43.887Z,10.83
2018-11-21T02:54:12.681Z,11.10
2018-11-21T02:57:19.164Z,11.23
2018-11-21T02:59:48.988Z,10.30
2018-11-21T03:02:17.828Z,11.10
2018-11-21T03:04:46.525Z,10.93
2018-11-21T03:07:15.362Z,11.07
2018-11-21T03:09:44.229Z,10.30
2018-11-21T03:12:13.042Z,10.77
2018-11-21T03:14:41.804Z,11.03
2018-11-21T03:17:10.585Z,11.10
2018-11-21T03:19:39.376Z,11.43
2018-11-21T03:22:08.180Z,10.33
2018-11-21T03:24:36.925Z,11.47
2018-11-21T03:27:05.953Z,10.83
2018-11-21T03:29:34.673Z,10.93
2018-11-21T03:32:03.472Z,10.63
2018-11-21T03:34:32.228Z,10.37
2018-11-21T03:37:01.018Z,10.33
2018-11-21T03:39:29.795Z,10.43
2018-11-21T03:41:58.522Z,10.80
2018-11-21T03:44:27.264Z,11.13
2018-11-21T03:46:56.053Z,10.83
2018-11-21T03:49:24.800Z,10.33
2018-11-21T03:51:53.505Z,10.00
2018-11-21T03:54:22.286Z,10.30
2018-11-21T03:56:51.040Z,10.17
2018-11-21T03:59:19.831Z,9.90
2018-11-21T04:01:48.538Z,9.73
2018-11-21T04:04:17.280Z,10.93
2018-11-21T04:06:46.051Z,10.20
2018-11-21T04:09:14.841Z,10.40
2018-11-21T04:11:43.641Z,10.53
2018-11-21T04:14:12.410Z,9.27
2018-11-21T04:16:41.179Z,8.83
2018-11-21T04:19:09.923Z,8.67
2018-11-21T04:21:38.636Z,9.30
2018-11-21T04:24:07.453Z,9.30
2018-11-21T04:26:36.190Z,9.67
2018-11-21T04:29:05.053Z,9.40
2018-11-21T04:31:33.816Z,8.80
2018-11-21T04:34:02.585Z,9.10
2018-11-21T04:36:31.308Z,8.77
2018-11-21T04:39:00.073Z,9.13
2018-11-21T04:41:28.833Z,9.50
2018-11-21T04:43:57.597Z,9.33
2018-11-21T04:46:26.313Z,8.43
2018-11-21T04:48:55.069Z,9.30
2018-11-21T04:51:23.840Z,9.30
2018-11-21T04:53:52.592Z,9.50
2018-11-21T04:56:21.311Z,9.07
2018-11-21T04:58:50.061Z,8.70
2018-11-21T05:01:18.806Z,9.70
2018-11-21T05:03:47.594Z,9.27
2018-11-21T05:06:16.381Z,9.60
2018-11-21T05:08:45.173Z,8.67
2018-11-21T05:11:13.963Z,8.80
2018-11-21T05:13:43.180Z,8.63
2018-11-21T05:16:12.226Z,8.63
2018-11-21T05:18:40.964Z,8.40
2018-11-21T05:21:09.704Z,8.47
2018-11-21T05:23:38.454Z,8.90
2018-11-21T05:26:07.403Z,8.67
2018-11-21T05:28:38.695Z,8.63
2018-11-21T05:31:07.421Z,8.63
2018-11-21T05:33:36.163Z,8.30
2018-11-21T05:36:04.964Z,8.90
2018-11-21T05:38:33.741Z,8.67
2018-11-21T05:41:02.493Z,8.60
2018-11-21T05:43:31.219Z,8.47
2018-11-21T05:46:00.069Z,8.53
2018-11-21T05:48:28.710Z,8.47
2018-11-21T05:50:57.457Z,8.17
2018-11-21T05:53:26.206Z,8.50
2018-11-21T05:55:54.910Z,8.47
2018-11-21T05:58:23.656Z,8.60
2018-11-21T06:00:52.423Z,8.50
2018-11-21T06:03:21.153Z,8.50
2018-11-21T06:05:49.860Z,7.87
2018-11-21T06:08:18.676Z,8.87
2018-11-21T06:10:47.408Z,8.27
2018-11-21T06:13:16.236Z,6.40
2018-11-21T06:15:45.029Z,8.20
2018-11-21T06:18:13.884Z,7.80
2018-11-21T06:20:42.664Z,8.53
2018-11-21T06:23:11.419Z,8.10
2018-11-21T06:25:40.131Z,7.77
2018-11-21T06:28:08.868Z,8.23
2018-11-21T06:30:37.580Z,7.93
2018-11-21T06:33:06.501Z,7.77
2018-11-21T06:35:35.232Z,7.83
2018-11-21T06:38:03.951Z,8.03
2018-11-21T06:40:32.766Z,8.30
2018-11-21T06:43:01.546Z,8.00
2018-11-21T06:45:30.258Z,7.70
2018-11-21T06:47:58.999Z,8.07
2018-11-21T06:50:27.771Z,8.17
2018-11-21T06:52:57.667Z,7.60
2018-11-21T06:55:26.460Z,8.20
2018-11-21T06:57:55.163Z,8.33
2018-11-21T07:00:23.903Z,8.30
2018-11-21T07:02:52.596Z,8.33
2018-11-21T07:05:21.362Z,7.60
2018-11-21T07:07:50.124Z,8.17
2018-11-21T07:10:18.885Z,7.53
2018-11-21T07:12:47.932Z,8.60
2018-11-21T07:15:16.885Z,8.50
2018-11-21T07:17:45.527Z,8.53
2018-11-21T07:20:14.377Z,8.17
2018-11-21T07:22:43.138Z,7.77
2018-11-21T07:25:15.948Z,8.40
2018-11-21T07:27:44.936Z,8.43
2018-11-21T07:30:14.989Z,7.97
2018-11-21T07:32:43.733Z,8.27
2018-11-21T07:35:17.767Z,7.93
2018-11-21T07:37:42.117Z,7.63
2018-11-21T07:40:14.752Z,7.70
2018-11-21T07:42:43.566Z,7.97
2018-11-21T07:45:13.717Z,8.27
2018-11-21T07:47:43.555Z,8.73
2018-11-21T07:50:15.077Z,8.40
2018-11-21T07:52:43.909Z,8.23
2018-11-21T07:55:13.264Z,8.30
2018-11-21T07:57:54.526Z,8.37
2018-11-21T08:01:04.299Z,8.10
2018-11-21T08:03:34.984Z,8.97
2018-11-21T08:06:06.766Z,8.80
2018-11-21T08:08:53.625Z,8.40
2018-11-21T08:11:47.394Z,7.87
2018-11-21T08:14:35.307Z,7.97
2018-11-21T08:17:26.619Z,8.67
2018-11-21T08:20:13.325Z,8.00
2018-11-21T08:22:57.244Z,8.43
2018-11-21T08:25:38.248Z,8.90
2018-11-21T08:28:20.021Z,7.70
2018-11-21T08:30:49.543Z,7.93
2018-11-21T08:33:18.365Z,8.40
2018-11-21T08:35:47.402Z,8.53
2018-11-21T08:38:16.678Z,7.13
2018-11-21T08:40:45.725Z,8.60
2018-11-21T08:43:14.455Z,8.40
2018-11-21T08:45:43.176Z,7.80
2018-11-21T08:48:12.436Z,7.93
2018-11-21T08:50:41.240Z,8.07
2018-11-21T08:53:09.933Z,7.77
2018-11-21T08:55:38.703Z,8.27
2018-11-21T08:58:08.109Z,8.53
2018-11-21T09:00:36.819Z,7.70
2018-11-21T09:03:06.209Z,8.00
2018-11-21T09:05:35.003Z,8.07
2018-11-21T09:08:04.240Z,8.60
2018-11-21T09:13:01.432Z,8.60
2018-11-21T09:15:30.176Z,8.00
2018-11-21T09:17:58.915Z,7.13
2018-11-21T09:20:27.730Z,7.57
2018-11-21T09:22:56.445Z,8.33
2018-11-21T09:25:25.137Z,7.77
2018-11-21T09:27:53.855Z,8.00
2018-11-21T09:30:23.557Z,8.10
2018-11-21T09:32:54.002Z,8.50
2018-11-21T09:35:22.690Z,7.83
2018-11-21T09:37:51.415Z,7.70
2018-11-21T09:40:21.478Z,7.93
2018-11-21T09:42:51.490Z,8.50
2018-11-21T09:45:22.630Z,7.37
2018-11-21T09:47:51.333Z,7.87
2018-11-21T09:50:27.600Z,9.00
2018-11-21T09:52:56.355Z,8.23
2018-11-21T09:55:25.124Z,8.53
2018-11-21T09:57:53.899Z,8.10
2018-11-21T10:00:59.501Z,7.97
2018-11-21T10:03:29.876Z,8.30
2018-11-21T10:06:31.477Z,8.87
2018-11-21T10:09:12.726Z,8.80
2018-11-21T10:11:41.471Z,8.20
2018-11-21T10:14:10.165Z,8.80
2018-11-21T10:16:38.944Z,8.50
2018-11-21T10:19:07.910Z,8.70
2018-11-21T10:21:37.035Z,8.97
2018-11-21T10:24:05.748Z,9.07
2018-11-21T10:26:34.451Z,9.13
2018-11-21T10:29:03.162Z,8.83
2018-11-21T10:31:31.888Z,10.37
2018-11-21T10:34:00.609Z,8.83
2018-11-21T10:36:29.320Z,9.10
2018-11-21T10:38:58.045Z,9.10
2018-11-21T10:41:26.792Z,8.67
2018-11-21T10:43:55.508Z,8.00
2018-11-21T10:46:24.305Z,8.77
2018-11-21T10:48:53.057Z,9.23
2018-11-21T10:51:21.843Z,8.43
2018-11-21T10:53:50.756Z,8.97
2018-11-21T10:56:19.530Z,9.40
2018-11-21T10:58:48.336Z,8.80
2018-11-21T11:01:35.112Z,9.23
2018-11-21T11:04:10.749Z,8.80
2018-11-21T11:06:51.885Z,9.23
2018-11-21T11:09:58.482Z,9.03
2018-11-21T11:12:58.436Z,8.67
2018-11-21T11:15:49.408Z,9.70
2018-11-21T11:18:34.884Z,9.13
2018-11-21T11:21:22.016Z,9.23
2018-11-21T11:24:11.444Z,9.63
2018-11-21T11:26:48.413Z,9.70
2018-11-21T11:29:39.213Z,9.00
2018-11-21T11:32:27.590Z,9.77
2018-11-21T11:35:07.977Z,9.77
2018-11-21T11:37:52.067Z,9.47
2018-11-21T11:40:52.758Z,9.80
2018-11-21T11:43:49.651Z,9.57
2018-11-21T11:46:31.378Z,10.07
2018-11-21T11:49:17.837Z,9.37
2018-11-21T11:52:08.419Z,9.37
2018-11-21T11:55:11.260Z,9.93
2018-11-21T11:57:56.570Z,8.90
2018-11-21T12:00:44.511Z,9.83
2018-11-21T12:03:31.331Z,9.43
2018-11-21T12:06:13.203Z,10.20
2018-11-21T12:09:00.769Z,9.43
2018-11-21T12:11:47.907Z,9.70
2018-11-21T12:14:50.952Z,9.27
2018-11-21T12:17:31.420Z,9.30
2018-11-21T12:20:27.832Z,9.00
2018-11-21T12:23:22.127Z,9.43
2018-11-21T12:26:10.577Z,9.43
2018-11-21T12:29:00.459Z,8.77
2018-11-21T12:32:03.855Z,9.80
2018-11-21T12:34:57.500Z,9.63
2018-11-21T12:37:38.081Z,9.50
2018-11-21T12:40:25.540Z,10.20
2018-11-21T12:43:13.472Z,10.37
2018-11-21T12:46:08.511Z,9.90
2018-11-21T12:48:52.464Z,9.23
2018-11-21T12:51:44.110Z,10.43
2018-11-21T12:54:32.649Z,10.13
2018-11-21T12:57:09.641Z,9.83
2018-11-21T12:59:56.335Z,10.13
2018-11-21T13:02:39.813Z,9.63
2018-11-21T13:05:28.032Z,10.03
2018-11-21T13:08:14.889Z,10.03
2018-11-21T13:11:01.887Z,10.27
2018-11-21T13:14:07.741Z,10.70
2018-11-21T13:16:54.546Z,10.47
2018-11-21T13:19:41.140Z,10.93
2018-11-21T13:22:36.583Z,10.87
2018-11-21T13:25:27.334Z,10.67
2018-11-21T13:28:30.435Z,9.97
2018-11-21T13:31:24.285Z,11.00
2018-11-21T13:34:30.892Z,11.33
2018-11-21T13:37:34.159Z,11.37
2018-11-21T13:40:31.206Z,11.33
2018-11-21T13:43:11.209Z,11.13
2018-11-21T13:46:17.511Z,10.70
2018-11-21T13:49:05.992Z,11.00
2018-11-21T13:52:08.639Z,10.93
2018-11-21T13:54:45.367Z,10.97
2018-11-21T13:57:14.263Z,10.23
2018-11-21T13:59:45.713Z,11.37
2018-11-21T14:02:14.541Z,11.23
2018-11-21T14:04:43.728Z,11.87
2018-11-21T14:07:15.522Z,10.70
2018-11-21T14:09:41.981Z,10.97
2018-11-21T14:12:10.874Z,11.00
2018-11-21T14:14:39.821Z,12.40
2018-11-21T14:17:08.984Z,11.03
2018-11-21T14:19:40.108Z,11.00
2018-11-21T14:22:09.064Z,11.13
2018-11-21T14:24:38.104Z,10.70
2018-11-21T14:27:07.067Z,10.97
2018-11-21T14:29:35.985Z,10.77
2018-11-21T14:32:05.595Z,10.87
2018-11-21T14:34:34.666Z,10.67
2018-11-21T14:37:03.372Z,10.50
2018-11-21T14:39:34.239Z,9.90
2018-11-21T14:42:08.335Z,10.03
2018-11-21T14:44:34.921Z,10.53
2018-11-21T14:47:05.172Z,10.30
2018-11-21T14:49:35.673Z,10.57
2018-11-21T14:52:03.699Z,9.83
2018-11-21T14:54:35.552Z,9.80
2018-11-21T14:57:04.363Z,10.47
2018-11-21T14:59:40.940Z,10.60
2018-11-21T15:02:10.111Z,10.00
2018-11-21T15:04:38.971Z,9.87
2018-11-21T15:07:14.328Z,10.20
2018-11-21T15:09:37.175Z,9.93
2018-11-21T15:12:08.278Z,9.40
2018-11-21T15:14:37.304Z,10.33
2018-11-21T15:17:06.342Z,9.90
2018-11-21T15:19:35.213Z,9.80
2018-11-21T15:22:04.461Z,9.30
2018-11-21T15:24:35.474Z,9.63
2018-11-21T15:27:05.578Z,10.17
2018-11-21T15:29:34.834Z,9.53
2018-11-21T15:32:06.365Z,10.07
2018-11-21T15:34:41.278Z,9.50
2018-11-21T15:37:12.257Z,10.20
2018-11-21T15:39:39.611Z,9.87
2018-11-21T15:42:14.041Z,10.00
2018-11-21T15:44:42.651Z,9.70
2018-11-21T15:47:13.235Z,9.87
2018-11-21T15:49:43.323Z,9.73
2018-11-21T15:52:19.850Z,10.30
2018-11-21T15:54:48.776Z,9.23
2018-11-21T15:57:17.704Z,9.33
2018-11-21T15:59:46.635Z,9.97
2018-11-21T16:02:15.460Z,9.63
2018-11-21T16:04:48.083Z,9.60
2018-11-21T16:07:13.611Z,10.83
2018-11-21T16:09:42.691Z,10.73
2018-11-21T16:12:11.594Z,10.07
2018-11-21T16:14:40.828Z,9.80
2018-11-21T16:17:10.259Z,10.13
2018-11-21T16:19:41.774Z,10.27
2018-11-21T16:22:16.251Z,10.70
2018-11-21T16:24:40.297Z,9.90
2018-11-21T16:27:09.172Z,10.47
2018-11-21T16:29:38.219Z,10.30
2018-11-21T16:32:07.011Z,12.13
2018-11-21T16:34:35.769Z,10.53
2018-11-21T16:37:04.678Z,11.07
2018-11-21T16:39:33.721Z,11.70
2018-11-21T16:42:02.521Z,10.93
2018-11-21T16:44:31.318Z,11.87
2018-11-21T16:47:02.774Z,11.37
2018-11-21T16:49:31.889Z,11.20
2018-11-21T16:52:00.713Z,11.67
2018-11-21T16:54:32.148Z,12.80
2018-11-21T16:56:58.283Z,12.30
2018-11-21T16:59:27.113Z,12.77
2018-11-21T17:01:56.035Z,12.10
2018-11-21T17:04:24.826Z,11.87
2018-11-21T17:06:53.707Z,11.93
2018-11-21T17:09:24.221Z,12.73
2018-11-21T17:11:51.752Z,12.20
2018-11-21T17:14:20.739Z,11.90
2018-11-21T17:16:49.944Z,12.60
2018-11-21T17:19:21.393Z,12.50
2018-11-21T17:21:47.959Z,12.00
2018-11-21T17:24:17.095Z,12.67
2018-11-21T17:26:45.935Z,12.17
2018-11-21T17:29:14.777Z,12.17
2018-11-21T17:31:46.279Z,12.67
2018-11-21T17:34:12.654Z,12.80
2018-11-21T17:36:41.598Z,12.50
2018-11-21T17:39:12.387Z,12.00
2018-11-21T17:41:41.462Z,12.73
2018-11-21T17:44:10.908Z,13.03
2018-11-21T17:46:39.848Z,13.17
2018-11-21T17:49:08.737Z,13.70
2018-11-21T17:51:37.804Z,12.50
2018-11-21T17:54:06.894Z,13.40
2018-11-21T17:56:36.014Z,12.70
2018-11-21T17:59:04.922Z,13.13
2018-11-21T18:01:34.130Z,13.53
2018-11-21T18:04:03.053Z,12.90
2018-11-21T18:06:31.869Z,13.47
2018-11-21T18:09:01.048Z,14.57
2018-11-21T18:11:30.215Z,13.43
2018-11-21T18:13:59.449Z,12.93
2018-11-21T18:16:28.901Z,13.17
2018-11-21T18:18:57.729Z,13.77
2018-11-21T18:21:29.745Z,13.77
2018-11-21T18:24:03.602Z,13.93
2018-11-21T18:26:32.815Z,12.63
2018-11-21T18:29:02.107Z,13.63
2018-11-21T18:31:35.702Z,13.13
2018-11-21T18:34:03.088Z,13.30
2018-11-21T18:36:32.377Z,14.00
2018-11-21T18:39:01.622Z,12.73
2018-11-21T18:41:30.651Z,12.47
2018-11-21T18:44:01.507Z,13.03
2018-11-21T18:46:28.627Z,12.97
2018-11-21T18:48:57.720Z,12.23
2018-11-21T18:51:27.238Z,12.97
2018-11-21T18:53:55.990Z,12.57
2018-11-21T18:56:28.968Z,12.90
2018-11-21T18:59:16.503Z,12.73
2018-11-21T19:01:46.823Z,12.40
2018-11-21T19:04:14.069Z,13.37
2018-11-21T19:06:43.023Z,13.40
2018-11-21T19:09:13.943Z,12.93
2018-11-21T19:11:42.796Z,12.87
2018-11-21T19:14:11.655Z,13.30
2018-11-21T19:16:40.422Z,12.83
2018-11-21T19:19:09.221Z,12.87
2018-11-21T19:21:38.075Z,13.93
2018-11-21T19:24:06.857Z,13.20
2018-11-21T19:26:35.654Z,14.23
2018-11-21T19:29:04.399Z,13.93
2018-11-21T19:31:33.150Z,14.40
2018-11-21T19:34:02.325Z,13.50
2018-11-21T19:36:31.081Z,13.03
2018-11-21T19:38:59.913Z,13.07
2018-11-21T19:41:28.778Z,12.70
2018-11-21T19:43:57.586Z,13.23
2018-11-21T19:46:26.403Z,12.77
2018-11-21T19:48:55.094Z,13.30
2018-11-21T19:51:23.851Z,13.80
2018-11-21T19:53:53.681Z,13.57
2018-11-21T19:56:22.565Z,13.53
2018-11-21T19:58:51.303Z,14.00
2018-11-21T20:01:20.337Z,14.47
2018-11-21T20:03:49.132Z,13.37
2018-11-21T20:06:18.041Z,14.63
2018-11-21T20:08:46.841Z,13.73
2018-11-21T20:11:16.497Z,13.87
2018-11-21T20:13:45.324Z,14.70
2018-11-21T20:16:14.012Z,14.67
2018-11-21T20:18:42.811Z,14.80
2018-11-21T20:21:11.584Z,14.53
2018-11-21T20:23:40.512Z,14.73
2018-11-21T20:26:09.333Z,14.17
2018-11-21T20:28:38.158Z,13.03
2018-11-21T20:31:06.975Z,14.17
2018-11-21T20:33:38.527Z,14.27
2018-11-21T20:36:07.378Z,14.67
2018-11-21T20:38:36.103Z,14.37
2018-11-21T20:41:05.022Z,14.63
2018-11-21T20:43:33.988Z,14.43
2018-11-21T20:46:02.744Z,14.47
2018-11-21T20:48:31.698Z,14.87
2018-11-21T20:51:00.539Z,15.87
2018-11-21T20:53:29.924Z,15.40
2018-11-21T20:55:59.093Z,15.47
2018-11-21T20:58:28.034Z,14.97
2018-11-21T21:00:57.431Z,15.57
2018-11-21T21:03:33.726Z,15.37
2018-11-21T21:06:02.751Z,14.87
2018-11-21T21:08:31.460Z,15.53
2018-11-21T21:11:00.441Z,15.57
2018-11-21T21:13:29.426Z,15.13
2018-11-21T21:16:01.071Z,15.57
2018-11-21T21:18:29.996Z,16.57
2018-11-21T21:20:58.912Z,16.70
2018-11-21T21:23:27.880Z,15.37
2018-11-21T21:25:57.008Z,15.60
2018-11-21T21:28:25.752Z,15.47
2018-11-21T21:30:54.488Z,15.73
2018-11-21T21:33:24.334Z,16.23
2018-11-21T21:35:53.112Z,15.40
2018-11-21T21:38:22.113Z,15.60
2018-11-21T21:40:50.849Z,15.60
